Time,TemperatureF,DewpointF,PressureIn,WindDirection,WindDirectionDegrees,WindSpeedMPH,WindSpeedGustMPH,Humidity,HourlyPrecipIn,Conditions,Clouds,dailyrainin,SolarRadiationWatts/m^2,SoftwareType,DateUTC
2013-02-27 00:21:00,34.0,31.0,-100.00,North,5,5.0,10.0,88,0.00,,,0.02,0.000000,,2013-02-27 09:21:00,
2013-02-27 00:32:00,34.0,31.0,-100.00,North,5,5.0,10.0,88,0.00,,,0.02,0.000000,,2013-02-27 09:32:00,
2013-02-27 00:41:00,34.0,31.0,-100.00,North,5,5.0,10.0,88,0.00,,,0.02,0.000000,,2013-02-27 09:41:00,
2013-02-27 00:51:00,34.0,31.0,-100.00,North,5,5.0,10.0,88,0.00,,,0.02,0.000000,,2013-02-27 09:51:00,
2013-02-27 01:21:00,33.0,29.0,-100.00,NNE,13,4.0,11.0,86,0.01,,,0.03,0.000000,,2013-02-27 10:21:00,
2013-02-27 01:32:00,33.0,29.0,-100.00,NNE,13,4.0,11.0,86,0.01,,,0.03,0.000000,,2013-02-27 10:32:00,
2013-02-27 01:42:00,33.0,29.0,-100.00,NNE,13,4.0,11.0,86,0.01,,,0.03,0.000000,,2013-02-27 10:42:00,
2013-02-27 01:52:00,33.0,29.0,-100.00,NNE,13,4.0,11.0,86,0.01,,,0.03,0.000000,,2013-02-27 10:52:00,
2013-02-27 02:22:00,34.0,31.0,-100.00,North,6,4.0,9.0,90,0.00,,,0.03,0.000000,,2013-02-27 11:22:00,
2013-02-27 02:32:00,34.0,31.0,-100.00,North,6,4.0,9.0,90,0.00,,,0.03,0.000000,,2013-02-27 11:32:00,
2013-02-27 02:41:00,34.0,31.0,-100.00,North,6,4.0,9.0,90,0.00,,,0.03,0.000000,,2013-02-27 11:41:00,
2013-02-27 02:52:00,34.0,31.0,-100.00,North,6,4.0,9.0,90,0.00,,,0.03,0.000000,,2013-02-27 11:52:00,
2013-02-27 03:22:00,34.0,28.0,-100.00,NNE,19,3.0,11.0,78,0.00,,,0.03,0.000000,,2013-02-27 12:22:00,
2013-02-27 03:32:00,34.0,28.0,-100.00,NNE,19,3.0,11.0,78,0.00,,,0.03,0.000000,,2013-02-27 12:32:00,
2013-02-27 03:42:00,34.0,28.0,-100.00,NNE,19,3.0,11.0,78,0.00,,,0.03,0.000000,,2013-02-27 12:42:00,
2013-02-27 03:52:00,34.0,28.0,-100.00,NNE,19,3.0,11.0,78,0.00,,,0.03,0.000000,,2013-02-27 12:52:00,
2013-02-27 04:22:00,33.0,32.0,-100.00,NNE,15,3.0,11.0,95,0.00,,,0.03,0.000000,,2013-02-27 13:22:00,
2013-02-27 04:32:00,33.0,32.0,-100.00,NNE,15,3.0,11.0,95,0.00,,,0.03,0.000000,,2013-02-27 13:32:00,
2013-02-27 04:42:00,33.0,32.0,-100.00,NNE,15,3.0,11.0,95,0.00,,,0.03,0.000000,,2013-02-27 13:42:00,
2013-02-27 04:52:00,33.0,32.0,-100.00,NNE,15,3.0,11.0,95,0.00,,,0.03,0.000000,,2013-02-27 13:52:00,
2013-02-27 05:21:00,32.0,32.0,-100.00,North,6,4.0,12.0,98,0.01,,,0.04,0.000000,,2013-02-27 14:21:00,
2013-02-27 05:31:00,32.0,32.0,-100.00,North,6,4.0,12.0,98,0.01,,,0.04,0.000000,,2013-02-27 14:31:00,
2013-02-27 05:42:00,32.0,32.0,-100.00,North,6,4.0,12.0,98,0.01,,,0.04,0.000000,,2013-02-27 14:42:00,
2013-02-27 05:52:00,32.0,32.0,-100.00,North,6,4.0,12.0,98,0.01,,,0.04,0.000000,,2013-02-27 14:52:00,
2013-02-27 06:22:00,32.0,31.0,-100.00,NNE,13,3.0,9.0,95,0.00,,,0.04,0.000000,,2013-02-27 15:22:00,
2013-02-27 06:32:00,32.0,31.0,-100.00,NNE,13,3.0,9.0,95,0.00,,,0.04,0.000000,,2013-02-27 15:32:00,
2013-02-27 06:42:00,32.0,31.0,-100.00,NNE,13,3.0,9.0,95,0.00,,,0.04,0.000000,,2013-02-27 15:42:00,
2013-02-27 06:51:00,32.0,31.0,-100.00,NNE,13,3.0,9.0,95,0.00,,,0.04,0.000000,,2013-02-27 15:51:00,
2013-02-27 07:22:00,32.0,32.0,-100.00,NNE,18,3.0,9.0,98,0.00,,,0.04,0.000000,,2013-02-27 16:22:00,
2013-02-27 07:32:00,32.0,32.0,-100.00,NNE,18,3.0,9.0,98,0.00,,,0.04,0.000000,,2013-02-27 16:32:00,
2013-02-27 07:42:00,32.0,32.0,-100.00,NNE,18,3.0,9.0,98,0.00,,,0.04,0.000000,,2013-02-27 16:42:00,
2013-02-27 07:52:00,32.0,32.0,-100.00,NNE,18,3.0,9.0,98,0.00,,,0.04,0.000000,,2013-02-27 16:52:00,
2013-02-27 08:21:00,32.0,32.0,-100.00,NNE,17,2.0,8.0,100,0.00,,,0.04,0.000000,,2013-02-27 17:21:00,
2013-02-27 08:32:00,32.0,32.0,-100.00,NNE,17,2.0,8.0,100,0.00,,,0.04,0.000000,,2013-02-27 17:32:00,
2013-02-27 08:41:00,32.0,32.0,-100.00,NNE,17,2.0,8.0,100,0.00,,,0.04,0.000000,,2013-02-27 17:41:00,
2013-02-27 08:52:00,32.0,32.0,-100.00,NNE,17,2.0,8.0,100,0.00,,,0.04,0.000000,,2013-02-27 17:52:00,
2013-02-27 09:22:00,32.0,32.0,-100.00,NNE,27,1.0,6.0,100,0.00,,,-99.99,2.000000,,2013-02-27 18:22:00,
2013-02-27 09:32:00,32.0,32.0,-100.00,NNE,27,1.0,6.0,100,0.00,,,-99.99,2.000000,,2013-02-27 18:32:00,
2013-02-27 09:42:00,32.0,32.0,-100.00,NNE,27,1.0,6.0,100,0.00,,,-99.99,2.000000,,2013-02-27 18:42:00,
2013-02-27 09:51:00,32.0,32.0,-100.00,NNE,27,1.0,6.0,100,0.00,,,-99.99,2.000000,,2013-02-27 18:51:00,
2013-02-27 10:21:00,32.0,32.0,-100.00,NE,36,1.0,4.0,100,0.00,,,0.04,9.000000,,2013-02-27 19:21:00,
2013-02-27 10:32:00,32.0,32.0,-100.00,NE,36,1.0,4.0,100,0.00,,,0.04,9.000000,,2013-02-27 19:32:00,
2013-02-27 10:42:00,32.0,32.0,-100.00,NE,36,1.0,4.0,100,0.00,,,0.04,9.000000,,2013-02-27 19:42:00,
2013-02-27 10:51:00,32.0,32.0,-100.00,NE,36,1.0,4.0,100,0.00,,,0.04,9.000000,,2013-02-27 19:51:00,
2013-02-27 11:21:00,33.0,32.0,-100.00,NE,37,1.0,4.0,96,0.00,,,0.04,11.000000,,2013-02-27 20:21:00,
2013-02-27 11:32:00,33.0,32.0,-100.00,NE,37,1.0,4.0,96,0.00,,,0.04,11.000000,,2013-02-27 20:32:00,
2013-02-27 11:42:00,33.0,32.0,-100.00,NE,37,1.0,4.0,96,0.00,,,0.04,11.000000,,2013-02-27 20:42:00,
2013-02-27 11:52:00,33.0,32.0,-100.00,NE,37,1.0,4.0,96,0.00,,,0.04,11.000000,,2013-02-27 20:52:00,
2013-02-27 12:21:00,35.0,33.0,-100.00,NNE,33,1.0,4.0,92,0.00,,,0.04,59.000000,,2013-02-27 21:21:00,
2013-02-27 12:31:00,35.0,33.0,-100.00,NNE,33,1.0,4.0,92,0.00,,,0.04,59.000000,,2013-02-27 21:31:00,
2013-02-27 12:42:00,35.0,33.0,-100.00,NNE,33,1.0,4.0,92,0.00,,,0.04,59.000000,,2013-02-27 21:42:00,
2013-02-27 12:51:00,35.0,33.0,-100.00,NNE,33,1.0,4.0,92,0.00,,,0.04,59.000000,,2013-02-27 21:51:00,
2013-02-27 13:21:00,38.0,34.0,-100.00,SE,141,1.0,4.0,87,0.00,,,0.04,169.000000,,2013-02-27 22:21:00,
2013-02-27 13:31:00,38.0,34.0,-100.00,SE,141,1.0,4.0,87,0.00,,,0.04,169.000000,,2013-02-27 22:31:00,
2013-02-27 13:41:00,38.0,34.0,-100.00,SE,141,1.0,4.0,87,0.00,,,0.04,169.000000,,2013-02-27 22:41:00,
2013-02-27 13:51:00,38.0,34.0,-100.00,SE,141,1.0,4.0,87,0.00,,,0.04,169.000000,,2013-02-27 22:51:00,
2013-02-27 14:21:00,36.0,31.0,-100.00,NNE,15,3.0,8.0,82,0.06,,,0.10,144.000000,,2013-02-27 23:21:00,
2013-02-27 14:31:00,36.0,31.0,-100.00,NNE,15,3.0,8.0,82,0.06,,,0.10,144.000000,,2013-02-27 23:31:00,
2013-02-27 14:42:00,36.0,31.0,-100.00,NNE,15,3.0,8.0,82,0.06,,,0.10,144.000000,,2013-02-27 23:42:00,
2013-02-27 14:52:00,36.0,31.0,-100.00,NNE,15,3.0,8.0,82,0.06,,,0.10,144.000000,,2013-02-27 23:52:00,
2013-02-27 15:21:00,36.0,33.0,-100.00,NE,49,1.0,6.0,89,0.07,,,0.17,120.000000,,2013-02-28 00:21:00,
2013-02-27 15:32:00,36.0,33.0,-100.00,NE,49,1.0,6.0,89,0.07,,,0.17,120.000000,,2013-02-28 00:32:00,
2013-02-27 15:42:00,36.0,33.0,-100.00,NE,49,1.0,6.0,89,0.07,,,0.17,120.000000,,2013-02-28 00:42:00,
2013-02-27 15:51:00,36.0,33.0,-100.00,NE,49,1.0,6.0,89,0.07,,,0.17,120.000000,,2013-02-28 00:51:00,
2013-02-27 16:21:00,36.0,34.0,-100.00,South,189,0.0,3.0,91,0.02,,,0.19,82.000000,,2013-02-28 01:21:00,
2013-02-27 16:31:00,36.0,34.0,-100.00,South,189,0.0,3.0,91,0.02,,,0.19,82.000000,,2013-02-28 01:31:00,
2013-02-27 16:41:00,36.0,34.0,-100.00,South,189,0.0,3.0,91,0.02,,,0.19,82.000000,,2013-02-28 01:41:00,
2013-02-27 16:51:00,36.0,34.0,-100.00,South,189,0.0,3.0,91,0.02,,,0.19,82.000000,,2013-02-28 01:51:00,
2013-02-27 17:22:00,35.0,33.0,-100.00,South,169,1.0,5.0,92,0.00,,,0.19,58.000000,,2013-02-28 02:22:00,
2013-02-27 17:31:00,35.0,33.0,-100.00,South,169,1.0,5.0,92,0.00,,,0.19,58.000000,,2013-02-28 02:31:00,
2013-02-27 17:41:00,35.0,33.0,-100.00,South,169,1.0,5.0,92,0.00,,,0.19,58.000000,,2013-02-28 02:41:00,
2013-02-27 17:51:00,35.0,33.0,-100.00,South,169,1.0,5.0,92,0.00,,,0.19,58.000000,,2013-02-28 02:51:00,
2013-02-27 18:21:00,33.0,33.0,-100.00,SSE,147,0.0,2.0,99,0.01,,,0.20,18.000000,,2013-02-28 03:21:00,
2013-02-27 18:31:00,33.0,33.0,-100.00,SSE,147,0.0,2.0,99,0.01,,,0.20,18.000000,,2013-02-28 03:31:00,
2013-02-27 18:41:00,33.0,33.0,-100.00,SSE,147,0.0,2.0,99,0.01,,,0.20,18.000000,,2013-02-28 03:41:00,
2013-02-27 18:51:00,33.0,33.0,-100.00,SSE,147,0.0,2.0,99,0.01,,,0.20,18.000000,,2013-02-28 03:51:00,
2013-02-27 19:21:00,32.0,32.0,-100.00,ESE,122,0.0,4.0,100,0.00,,,0.20,2.000000,,2013-02-28 04:21:00,
2013-02-27 19:31:00,32.0,32.0,-100.00,ESE,122,0.0,4.0,100,0.00,,,0.20,2.000000,,2013-02-28 04:31:00,
2013-02-27 19:41:00,32.0,32.0,-100.00,ESE,122,0.0,4.0,100,0.00,,,0.20,2.000000,,2013-02-28 04:41:00,
2013-02-27 19:51:00,32.0,32.0,-100.00,ESE,122,0.0,4.0,100,0.00,,,0.20,2.000000,,2013-02-28 04:51:00,
2013-02-27 20:22:00,32.0,32.0,-100.00,SE,125,0.0,1.0,100,0.00,,,0.20,0.000000,,2013-02-28 05:22:00,
2013-02-27 20:31:00,32.0,32.0,-100.00,SE,125,0.0,1.0,100,0.00,,,0.20,0.000000,,2013-02-28 05:31:00,
2013-02-27 20:42:00,32.0,32.0,-100.00,SE,125,0.0,1.0,100,0.00,,,0.20,0.000000,,2013-02-28 05:42:00,
2013-02-27 20:51:00,32.0,32.0,-100.00,SE,125,0.0,1.0,100,0.00,,,0.20,0.000000,,2013-02-28 05:51:00,
2013-02-27 21:22:00,32.0,32.0,-100.00,ENE,78,0.0,1.0,100,0.00,,,0.19,0.000000,,2013-02-28 06:22:00,
2013-02-27 21:32:00,32.0,32.0,-100.00,ENE,78,0.0,1.0,100,0.00,,,0.19,0.000000,,2013-02-28 06:32:00,
2013-02-27 21:41:00,32.0,32.0,-100.00,ENE,78,0.0,1.0,100,0.00,,,0.19,0.000000,,2013-02-28 06:41:00,
2013-02-27 21:51:00,32.0,32.0,-100.00,ENE,78,0.0,1.0,100,0.00,,,0.19,0.000000,,2013-02-28 06:51:00,
2013-02-27 22:21:00,31.0,31.0,-100.00,ESE,108,0.0,1.0,100,0.00,,,0.18,0.000000,,2013-02-28 07:21:00,
2013-02-27 22:31:00,31.0,31.0,-100.00,ESE,108,0.0,1.0,100,0.00,,,0.18,0.000000,,2013-02-28 07:31:00,
2013-02-27 22:41:00,31.0,31.0,-100.00,ESE,108,0.0,1.0,100,0.00,,,0.18,0.000000,,2013-02-28 07:41:00,
2013-02-27 22:51:00,31.0,31.0,-100.00,ESE,108,0.0,1.0,100,0.00,,,0.18,0.000000,,2013-02-28 07:51:00,
2013-02-27 23:21:00,31.0,31.0,-100.00,ENE,77,0.0,2.0,100,0.00,,,0.18,0.000000,,2013-02-28 08:21:00,
2013-02-27 23:32:00,31.0,31.0,-100.00,ENE,77,0.0,2.0,100,0.00,,,0.18,0.000000,,2013-02-28 08:32:00,
2013-02-27 23:42:00,31.0,31.0,-100.00,ENE,77,0.0,2.0,100,0.00,,,0.18,0.000000,,2013-02-28 08:42:00,
2013-02-27 23:52:00,31.0,31.0,-100.00,ENE,77,0.0,2.0,100,0.00,,,0.18,0.000000,,2013-02-28 08:52:00,